sensor_id;sensor_type;location;lat;lon;timestamp;temperature;humidity
56184;DHT22;42086;53.170;6.980;2022-11-20T00:00:52;1.50;99.90
56184;DHT22;42086;53.170;6.980;2022-11-20T00:03:17;2.00;99.90
56184;DHT22;42086;53.170;6.980;2022-11-20T00:05:44;0.90;99.90
56184;DHT22;42086;53.170;6.980;2022-11-20T00:08:10;0.80;99.90
56184;DHT22;42086;53.170;6.980;2022-11-20T00:10:37;0.90;99.90
56184;DHT22;42086;53.170;6.980;2022-11-20T00:13:03;1.70;99.90
56184;DHT22;42086;53.170;6.980;2022-11-20T00:15:29;1.20;99.90
56184;DHT22;42086;53.170;6.980;2022-11-20T00:17:55;1.00;99.90
56184;DHT22;42086;53.170;6.980;2022-11-20T00:20:21;1.30;99.90
56184;DHT22;42086;53.170;6.980;2022-11-20T00:22:47;1.60;99.90
56184;DHT22;42086;53.170;6.980;2022-11-20T00:25:13;0.80;99.90
56184;DHT22;42086;53.170;6.980;2022-11-20T00:27:38;0.80;99.90
56184;DHT22;42086;53.170;6.980;2022-11-20T00:30:05;0.80;99.90
56184;DHT22;42086;53.170;6.980;2022-11-20T00:32:31;0.80;99.90
56184;DHT22;42086;53.170;6.980;2022-11-20T00:34:56;0.90;99.90
56184;DHT22;42086;53.170;6.980;2022-11-20T00:37:22;0.90;99.90
56184;DHT22;42086;53.170;6.980;2022-11-20T00:39:48;1.10;99.90
56184;DHT22;42086;53.170;6.980;2022-11-20T00:42:13;0.90;99.90
56184;DHT22;42086;53.170;6.980;2022-11-20T00:44:39;0.90;99.90
56184;DHT22;42086;53.170;6.980;2022-11-20T00:47:05;1.70;99.90
56184;DHT22;42086;53.170;6.980;2022-11-20T00:49:30;1.70;99.90
56184;DHT22;42086;53.170;6.980;2022-11-20T00:51:56;1.90;99.90
56184;DHT22;42086;53.170;6.980;2022-11-20T00:54:22;1.70;99.90
56184;DHT22;42086;53.170;6.980;2022-11-20T00:56:47;1.00;99.90
56184;DHT22;42086;53.170;6.980;2022-11-20T00:59:13;1.00;99.90
56184;DHT22;42086;53.170;6.980;2022-11-20T01:01:39;1.80;99.90
56184;DHT22;42086;53.170;6.980;2022-11-20T01:04:05;1.10;99.90
56184;DHT22;42086;53.170;6.980;2022-11-20T01:06:36;1.80;99.90
56184;DHT22;42086;53.170;6.980;2022-11-20T01:09:06;1.70;99.90
56184;DHT22;42086;53.170;6.980;2022-11-20T01:11:35;1.70;99.90
56184;DHT22;42086;53.170;6.980;2022-11-20T01:14:02;1.00;99.90
56184;DHT22;42086;53.170;6.980;2022-11-20T01:16:32;1.20;99.90
56184;DHT22;42086;53.170;6.980;2022-11-20T01:19:00;0.90;99.90
56184;DHT22;42086;53.170;6.980;2022-11-20T01:21:31;0.90;99.90
56184;DHT22;42086;53.170;6.980;2022-11-20T01:23:58;1.00;99.90
56184;DHT22;42086;53.170;6.980;2022-11-20T01:26:27;1.00;99.90
56184;DHT22;42086;53.170;6.980;2022-11-20T01:28:54;1.70;99.90
56184;DHT22;42086;53.170;6.980;2022-11-20T01:31:22;1.00;99.90
56184;DHT22;42086;53.170;6.980;2022-11-20T01:33:50;1.80;99.90
56184;DHT22;42086;53.170;6.980;2022-11-20T01:36:17;1.90;99.90
56184;DHT22;42086;53.170;6.980;2022-11-20T01:38:43;1.10;99.90
56184;DHT22;42086;53.170;6.980;2022-11-20T01:41:10;1.10;99.90
56184;DHT22;42086;53.170;6.980;2022-11-20T01:43:56;2.00;99.90
56184;DHT22;42086;53.170;6.980;2022-11-20T01:46:22;1.10;99.90
56184;DHT22;42086;53.170;6.980;2022-11-20T01:52:01;1.60;99.90
56184;DHT22;42086;53.170;6.980;2022-11-20T01:54:33;1.00;99.90
56184;DHT22;42086;53.170;6.980;2022-11-20T01:57:04;1.00;99.90
56184;DHT22;42086;53.170;6.980;2022-11-20T01:59:31;1.30;99.90
56184;DHT22;42086;53.170;6.980;2022-11-20T02:01:57;1.40;99.90
56184;DHT22;42086;53.170;6.980;2022-11-20T02:04:23;1.00;99.90
56184;DHT22;42086;53.170;6.980;2022-11-20T02:06:57;1.00;99.90
56184;DHT22;42086;53.170;6.980;2022-11-20T02:09:24;1.00;99.90
56184;DHT22;42086;53.170;6.980;2022-11-20T02:11:50;1.00;99.90
56184;DHT22;42086;53.170;6.980;2022-11-20T02:14:16;1.00;99.90
56184;DHT22;42086;53.170;6.980;2022-11-20T02:16:46;1.60;99.90
56184;DHT22;42086;53.170;6.980;2022-11-20T02:19:24;1.00;99.90
56184;DHT22;42086;53.170;6.980;2022-11-20T02:22:28;2.00;99.90
56184;DHT22;42086;53.170;6.980;2022-11-20T02:24:54;1.10;99.90
56184;DHT22;42086;53.170;6.980;2022-11-20T02:27:20;1.10;99.90
56184;DHT22;42086;53.170;6.980;2022-11-20T02:30:03;1.10;99.90
56184;DHT22;42086;53.170;6.980;2022-11-20T02:32:31;1.10;99.90
56184;DHT22;42086;53.170;6.980;2022-11-20T02:34:57;2.30;99.90
56184;DHT22;42086;53.170;6.980;2022-11-20T02:37:29;1.20;99.90
56184;DHT22;42086;53.170;6.980;2022-11-20T02:39:55;1.20;99.90
56184;DHT22;42086;53.170;6.980;2022-11-20T02:42:21;1.20;99.90
56184;DHT22;42086;53.170;6.980;2022-11-20T02:44:47;1.20;99.90
56184;DHT22;42086;53.170;6.980;2022-11-20T02:47:13;1.20;99.90
56184;DHT22;42086;53.170;6.980;2022-11-20T02:49:38;2.10;99.90
56184;DHT22;42086;53.170;6.980;2022-11-20T02:52:04;1.80;99.90
56184;DHT22;42086;53.170;6.980;2022-11-20T02:54:30;1.20;99.90
56184;DHT22;42086;53.170;6.980;2022-11-20T02:56:56;1.20;99.90
56184;DHT22;42086;53.170;6.980;2022-11-20T02:59:22;1.20;99.90
56184;DHT22;42086;53.170;6.980;2022-11-20T03:01:47;1.10;99.90
56184;DHT22;42086;53.170;6.980;2022-11-20T03:04:13;1.10;99.90
56184;DHT22;42086;53.170;6.980;2022-11-20T03:06:39;1.10;99.90
56184;DHT22;42086;53.170;6.980;2022-11-20T03:09:04;2.10;99.90
56184;DHT22;42086;53.170;6.980;2022-11-20T03:11:30;1.10;99.90
56184;DHT22;42086;53.170;6.980;2022-11-20T03:13:56;1.10;99.90
56184;DHT22;42086;53.170;6.980;2022-11-20T03:16:22;1.10;99.90
56184;DHT22;42086;53.170;6.980;2022-11-20T03:18:49;1.20;99.90
56184;DHT22;42086;53.170;6.980;2022-11-20T03:21:17;2.00;99.90
56184;DHT22;42086;53.170;6.980;2022-11-20T03:23:42;1.10;99.90
56184;DHT22;42086;53.170;6.980;2022-11-20T03:26:18;1.90;99.90
56184;DHT22;42086;53.170;6.980;2022-11-20T03:28:49;1.10;99.90
56184;DHT22;42086;53.170;6.980;2022-11-20T03:31:17;1.20;99.90
56184;DHT22;42086;53.170;6.980;2022-11-20T03:33:43;1.50;99.90
56184;DHT22;42086;53.170;6.980;2022-11-20T03:36:12;1.10;99.90
56184;DHT22;42086;53.170;6.980;2022-11-20T03:38:39;1.10;99.90
56184;DHT22;42086;53.170;6.980;2022-11-20T03:41:07;1.40;99.90
56184;DHT22;42086;53.170;6.980;2022-11-20T03:43:34;2.20;99.90
56184;DHT22;42086;53.170;6.980;2022-11-20T03:46:00;1.80;99.90
56184;DHT22;42086;53.170;6.980;2022-11-20T03:48:27;1.20;99.90
56184;DHT22;42086;53.170;6.980;2022-11-20T03:51:05;1.30;99.90
56184;DHT22;42086;53.170;6.980;2022-11-20T03:53:31;1.30;99.90
56184;DHT22;42086;53.170;6.980;2022-11-20T03:55:57;1.30;99.90
56184;DHT22;42086;53.170;6.980;2022-11-20T03:58:23;2.20;99.90
56184;DHT22;42086;53.170;6.980;2022-11-20T04:00:48;1.30;99.90
56184;DHT22;42086;53.170;6.980;2022-11-20T04:03:14;2.20;99.90
56184;DHT22;42086;53.170;6.980;2022-11-20T04:05:40;1.30;99.90
56184;DHT22;42086;53.170;6.980;2022-11-20T04:08:05;1.30;99.90
56184;DHT22;42086;53.170;6.980;2022-11-20T04:10:31;1.30;99.90
56184;DHT22;42086;53.170;6.980;2022-11-20T04:12:57;1.30;99.90
56184;DHT22;42086;53.170;6.980;2022-11-20T04:15:22;1.80;99.90
56184;DHT22;42086;53.170;6.980;2022-11-20T04:17:48;1.30;99.90
56184;DHT22;42086;53.170;6.980;2022-11-20T04:20:14;2.10;99.90
56184;DHT22;42086;53.170;6.980;2022-11-20T04:22:40;1.30;99.90
56184;DHT22;42086;53.170;6.980;2022-11-20T04:25:05;1.60;99.90
56184;DHT22;42086;53.170;6.980;2022-11-20T04:27:31;1.30;99.90
56184;DHT22;42086;53.170;6.980;2022-11-20T04:29:57;1.30;99.90
56184;DHT22;42086;53.170;6.980;2022-11-20T04:32:22;1.30;99.90
56184;DHT22;42086;53.170;6.980;2022-11-20T04:34:48;1.30;99.90
56184;DHT22;42086;53.170;6.980;2022-11-20T04:37:14;1.30;99.90
56184;DHT22;42086;53.170;6.980;2022-11-20T04:39:39;1.20;99.90
56184;DHT22;42086;53.170;6.980;2022-11-20T04:42:05;1.30;99.90
56184;DHT22;42086;53.170;6.980;2022-11-20T04:44:49;1.20;99.90
56184;DHT22;42086;53.170;6.980;2022-11-20T04:47:15;1.30;99.90
56184;DHT22;42086;53.170;6.980;2022-11-20T04:49:41;1.30;99.90
56184;DHT22;42086;53.170;6.980;2022-11-20T04:52:06;2.10;99.90
56184;DHT22;42086;53.170;6.980;2022-11-20T04:54:32;1.40;99.90
56184;DHT22;42086;53.170;6.980;2022-11-20T04:56:57;2.30;99.90
56184;DHT22;42086;53.170;6.980;2022-11-20T04:59:23;1.20;99.90
56184;DHT22;42086;53.170;6.980;2022-11-20T05:01:49;1.20;99.90
56184;DHT22;42086;53.170;6.980;2022-11-20T05:04:15;1.80;99.90
56184;DHT22;42086;53.170;6.980;2022-11-20T05:06:40;1.30;99.90
56184;DHT22;42086;53.170;6.980;2022-11-20T05:09:06;1.30;99.90
56184;DHT22;42086;53.170;6.980;2022-11-20T05:11:32;1.30;99.90
56184;DHT22;42086;53.170;6.980;2022-11-20T05:13:58;2.00;99.90
56184;DHT22;42086;53.170;6.980;2022-11-20T05:16:25;2.00;99.90
56184;DHT22;42086;53.170;6.980;2022-11-20T05:18:51;1.40;99.90
56184;DHT22;42086;53.170;6.980;2022-11-20T05:21:18;2.00;99.90
56184;DHT22;42086;53.170;6.980;2022-11-20T05:23:44;1.10;99.90
56184;DHT22;42086;53.170;6.980;2022-11-20T05:26:15;1.80;99.90
56184;DHT22;42086;53.170;6.980;2022-11-20T05:28:41;1.30;99.90
56184;DHT22;42086;53.170;6.980;2022-11-20T05:31:09;2.00;99.90
56184;DHT22;42086;53.170;6.980;2022-11-20T05:33:36;1.10;99.90
56184;DHT22;42086;53.170;6.980;2022-11-20T05:36:03;1.00;99.90
56184;DHT22;42086;53.170;6.980;2022-11-20T05:38:29;1.10;99.90
56184;DHT22;42086;53.170;6.980;2022-11-20T05:40:54;2.20;99.90
56184;DHT22;42086;53.170;6.980;2022-11-20T05:43:20;1.00;99.90
56184;DHT22;42086;53.170;6.980;2022-11-20T05:45:53;1.00;99.90
56184;DHT22;42086;53.170;6.980;2022-11-20T05:48:19;1.00;99.90
56184;DHT22;42086;53.170;6.980;2022-11-20T05:50:45;1.00;99.90
56184;DHT22;42086;53.170;6.980;2022-11-20T05:53:10;1.10;99.90
56184;DHT22;42086;53.170;6.980;2022-11-20T05:55:36;1.20;99.90
56184;DHT22;42086;53.170;6.980;2022-11-20T05:58:01;1.10;99.90
56184;DHT22;42086;53.170;6.980;2022-11-20T06:00:27;1.10;99.90
56184;DHT22;42086;53.170;6.980;2022-11-20T06:02:53;1.60;99.90
56184;DHT22;42086;53.170;6.980;2022-11-20T06:05:19;1.10;99.90
56184;DHT22;42086;53.170;6.980;2022-11-20T06:07:44;1.20;99.90
56184;DHT22;42086;53.170;6.980;2022-11-20T06:10:11;1.20;99.90
56184;DHT22;42086;53.170;6.980;2022-11-20T06:12:36;1.20;99.90
56184;DHT22;42086;53.170;6.980;2022-11-20T06:15:03;1.20;99.90
56184;DHT22;42086;53.170;6.980;2022-11-20T06:17:29;1.20;99.90
56184;DHT22;42086;53.170;6.980;2022-11-20T06:19:55;1.30;99.90
56184;DHT22;42086;53.170;6.980;2022-11-20T06:22:20;1.20;99.90
56184;DHT22;42086;53.170;6.980;2022-11-20T06:24:46;2.30;99.90
56184;DHT22;42086;53.170;6.980;2022-11-20T06:27:12;1.20;99.90
56184;DHT22;42086;53.170;6.980;2022-11-20T06:29:38;1.30;99.90
56184;DHT22;42086;53.170;6.980;2022-11-20T06:32:04;1.20;99.90
56184;DHT22;42086;53.170;6.980;2022-11-20T06:34:29;1.20;99.90
56184;DHT22;42086;53.170;6.980;2022-11-20T06:36:55;1.20;99.90
56184;DHT22;42086;53.170;6.980;2022-11-20T06:39:21;1.20;99.90
56184;DHT22;42086;53.170;6.980;2022-11-20T06:41:46;1.20;99.90
56184;DHT22;42086;53.170;6.980;2022-11-20T06:44:12;1.10;99.90
56184;DHT22;42086;53.170;6.980;2022-11-20T06:46:38;1.20;99.90
56184;DHT22;42086;53.170;6.980;2022-11-20T06:49:03;1.10;99.90
56184;DHT22;42086;53.170;6.980;2022-11-20T06:51:29;1.10;99.90
56184;DHT22;42086;53.170;6.980;2022-11-20T06:53:55;1.10;99.90
56184;DHT22;42086;53.170;6.980;2022-11-20T06:56:20;1.00;99.90
56184;DHT22;42086;53.170;6.980;2022-11-20T06:58:46;1.00;99.90
56184;DHT22;42086;53.170;6.980;2022-11-20T07:01:14;1.10;99.90
56184;DHT22;42086;53.170;6.980;2022-11-20T07:03:40;1.30;99.90
56184;DHT22;42086;53.170;6.980;2022-11-20T07:06:12;1.00;99.90
56184;DHT22;42086;53.170;6.980;2022-11-20T07:08:38;1.30;99.90
56184;DHT22;42086;53.170;6.980;2022-11-20T07:11:05;1.40;99.90
56184;DHT22;42086;53.170;6.980;2022-11-20T07:13:31;1.00;99.90
56184;DHT22;42086;53.170;6.980;2022-11-20T07:16:05;1.00;99.90
56184;DHT22;42086;53.170;6.980;2022-11-20T07:18:32;1.00;99.90
56184;DHT22;42086;53.170;6.980;2022-11-20T07:21:07;1.00;99.90
56184;DHT22;42086;53.170;6.980;2022-11-20T07:23:33;1.00;99.90
56184;DHT22;42086;53.170;6.980;2022-11-20T07:26:07;1.60;99.90
56184;DHT22;42086;53.170;6.980;2022-11-20T07:28:33;1.00;99.90
56184;DHT22;42086;53.170;6.980;2022-11-20T07:30:59;2.10;99.90
56184;DHT22;42086;53.170;6.980;2022-11-20T07:33:25;1.30;99.90
56184;DHT22;42086;53.170;6.980;2022-11-20T07:35:51;1.00;99.90
56184;DHT22;42086;53.170;6.980;2022-11-20T07:38:16;1.10;99.90
56184;DHT22;42086;53.170;6.980;2022-11-20T07:40:42;1.30;99.90
56184;DHT22;42086;53.170;6.980;2022-11-20T07:43:08;1.20;99.90
56184;DHT22;42086;53.170;6.980;2022-11-20T07:45:34;1.20;99.90
56184;DHT22;42086;53.170;6.980;2022-11-20T07:47:59;1.50;99.90
56184;DHT22;42086;53.170;6.980;2022-11-20T07:50:25;1.20;99.90
56184;DHT22;42086;53.170;6.980;2022-11-20T07:52:51;1.30;99.90
56184;DHT22;42086;53.170;6.980;2022-11-20T07:55:17;1.30;99.90
56184;DHT22;42086;53.170;6.980;2022-11-20T07:57:43;1.30;99.90
56184;DHT22;42086;53.170;6.980;2022-11-20T08:00:10;2.10;99.90
56184;DHT22;42086;53.170;6.980;2022-11-20T08:02:38;1.40;99.90
56184;DHT22;42086;53.170;6.980;2022-11-20T08:05:05;2.30;99.90
56184;DHT22;42086;53.170;6.980;2022-11-20T08:07:37;1.40;99.90
56184;DHT22;42086;53.170;6.980;2022-11-20T08:10:03;1.50;99.90
56184;DHT22;42086;53.170;6.980;2022-11-20T08:12:32;1.40;99.90
56184;DHT22;42086;53.170;6.980;2022-11-20T08:15:16;1.40;99.90
56184;DHT22;42086;53.170;6.980;2022-11-20T08:17:42;1.50;99.90
56184;DHT22;42086;53.170;6.980;2022-11-20T08:20:08;1.40;99.90
56184;DHT22;42086;53.170;6.980;2022-11-20T08:22:34;1.50;99.90
56184;DHT22;42086;53.170;6.980;2022-11-20T08:25:00;1.50;99.90
56184;DHT22;42086;53.170;6.980;2022-11-20T08:27:26;1.50;99.90
56184;DHT22;42086;53.170;6.980;2022-11-20T08:29:51;2.50;99.90
56184;DHT22;42086;53.170;6.980;2022-11-20T08:32:17;1.50;99.90
56184;DHT22;42086;53.170;6.980;2022-11-20T08:34:43;1.60;99.90
56184;DHT22;42086;53.170;6.980;2022-11-20T08:37:09;2.00;99.90
56184;DHT22;42086;53.170;6.980;2022-11-20T08:39:34;1.60;99.90
56184;DHT22;42086;53.170;6.980;2022-11-20T08:42:00;1.40;99.90
56184;DHT22;42086;53.170;6.980;2022-11-20T08:44:26;1.50;99.90
56184;DHT22;42086;53.170;6.980;2022-11-20T08:46:51;1.50;99.90
56184;DHT22;42086;53.170;6.980;2022-11-20T08:49:17;1.50;99.90
56184;DHT22;42086;53.170;6.980;2022-11-20T08:51:43;1.50;99.90
56184;DHT22;42086;53.170;6.980;2022-11-20T08:54:09;2.00;99.90
56184;DHT22;42086;53.170;6.980;2022-11-20T08:56:35;1.50;99.90
56184;DHT22;42086;53.170;6.980;2022-11-20T08:59:01;1.70;99.90
56184;DHT22;42086;53.170;6.980;2022-11-20T09:01:27;1.90;99.90
56184;DHT22;42086;53.170;6.980;2022-11-20T09:03:55;1.60;99.90
56184;DHT22;42086;53.170;6.980;2022-11-20T09:06:22;2.00;99.90
56184;DHT22;42086;53.170;6.980;2022-11-20T09:08:52;2.80;99.90
56184;DHT22;42086;53.170;6.980;2022-11-20T09:11:17;1.70;99.90
56184;DHT22;42086;53.170;6.980;2022-11-20T09:13:43;1.80;99.90
56184;DHT22;42086;53.170;6.980;2022-11-20T09:16:09;1.70;99.90
56184;DHT22;42086;53.170;6.980;2022-11-20T09:18:36;1.70;99.90
56184;DHT22;42086;53.170;6.980;2022-11-20T09:21:05;2.50;99.90
56184;DHT22;42086;53.170;6.980;2022-11-20T09:23:33;1.80;99.90
56184;DHT22;42086;53.170;6.980;2022-11-20T09:26:10;1.80;99.90
56184;DHT22;42086;53.170;6.980;2022-11-20T09:28:35;1.80;99.90
56184;DHT22;42086;53.170;6.980;2022-11-20T09:31:08;2.00;99.90
56184;DHT22;42086;53.170;6.980;2022-11-20T09:33:35;1.90;99.90
56184;DHT22;42086;53.170;6.980;2022-11-20T09:36:01;1.80;99.90
56184;DHT22;42086;53.170;6.980;2022-11-20T09:38:26;2.20;99.90
56184;DHT22;42086;53.170;6.980;2022-11-20T09:41:05;1.80;99.90
56184;DHT22;42086;53.170;6.980;2022-11-20T09:51:52;1.80;99.90
56184;DHT22;42086;53.170;6.980;2022-11-20T09:54:33;1.90;99.90
56184;DHT22;42086;53.170;6.980;2022-11-20T09:57:10;3.10;99.90
56184;DHT22;42086;53.170;6.980;2022-11-20T09:59:56;1.90;99.90
56184;DHT22;42086;53.170;6.980;2022-11-20T10:06:12;2.60;99.90
56184;DHT22;42086;53.170;6.980;2022-11-20T10:11:30;2.10;99.90
56184;DHT22;42086;53.170;6.980;2022-11-20T10:26:43;2.30;99.90
56184;DHT22;42086;53.170;6.980;2022-11-20T10:29:16;2.30;99.90
56184;DHT22;42086;53.170;6.980;2022-11-20T10:31:56;2.30;99.90
56184;DHT22;42086;53.170;6.980;2022-11-20T10:34:31;2.40;99.90
56184;DHT22;42086;53.170;6.980;2022-11-20T10:37:06;2.60;99.90
56184;DHT22;42086;53.170;6.980;2022-11-20T10:42:41;2.40;99.90
56184;DHT22;42086;53.170;6.980;2022-11-20T10:48:14;3.10;99.90
56184;DHT22;42086;53.170;6.980;2022-11-20T10:50:59;2.90;99.90
56184;DHT22;42086;53.170;6.980;2022-11-20T10:56:21;2.50;99.90
56184;DHT22;42086;53.170;6.980;2022-11-20T10:59:04;2.50;99.90
56184;DHT22;42086;53.170;6.980;2022-11-20T11:01:40;2.60;99.90
56184;DHT22;42086;53.170;6.980;2022-11-20T11:04:21;2.60;99.90
56184;DHT22;42086;53.170;6.980;2022-11-20T11:06:54;2.70;99.90
56184;DHT22;42086;53.170;6.980;2022-11-20T11:09:32;2.80;99.90
56184;DHT22;42086;53.170;6.980;2022-11-20T11:11:58;2.90;99.90
56184;DHT22;42086;53.170;6.980;2022-11-20T11:14:23;2.80;99.90
56184;DHT22;42086;53.170;6.980;2022-11-20T11:16:57;3.90;99.90
56184;DHT22;42086;53.170;6.980;2022-11-20T11:19:24;3.20;99.90
56184;DHT22;42086;53.170;6.980;2022-11-20T11:21:53;3.10;99.90
56184;DHT22;42086;53.170;6.980;2022-11-20T11:24:29;2.80;99.90
56184;DHT22;42086;53.170;6.980;2022-11-20T11:27:03;2.90;99.90
56184;DHT22;42086;53.170;6.980;2022-11-20T11:29:32;2.80;99.90
56184;DHT22;42086;53.170;6.980;2022-11-20T11:32:15;2.80;99.90
56184;DHT22;42086;53.170;6.980;2022-11-20T11:34:41;2.90;99.90
56184;DHT22;42086;53.170;6.980;2022-11-20T11:37:20;3.30;99.90
56184;DHT22;42086;53.170;6.980;2022-11-20T11:39:49;3.10;99.90
56184;DHT22;42086;53.170;6.980;2022-11-20T11:42:18;3.10;99.90
56184;DHT22;42086;53.170;6.980;2022-11-20T11:44:46;3.20;99.90
56184;DHT22;42086;53.170;6.980;2022-11-20T11:47:57;3.20;99.90
56184;DHT22;42086;53.170;6.980;2022-11-20T11:50:24;3.20;99.90
56184;DHT22;42086;53.170;6.980;2022-11-20T12:00:49;3.20;99.90
56184;DHT22;42086;53.170;6.980;2022-11-20T12:03:27;3.20;99.90
56184;DHT22;42086;53.170;6.980;2022-11-20T12:05:59;3.90;99.90
56184;DHT22;42086;53.170;6.980;2022-11-20T12:09:15;4.40;99.90
56184;DHT22;42086;53.170;6.980;2022-11-20T12:14:34;3.60;99.90
56184;DHT22;42086;53.170;6.980;2022-11-20T12:17:02;3.60;99.90
56184;DHT22;42086;53.170;6.980;2022-11-20T12:19:30;3.70;99.90
56184;DHT22;42086;53.170;6.980;2022-11-20T12:27:48;3.70;99.90
56184;DHT22;42086;53.170;6.980;2022-11-20T12:30:20;3.90;99.90
56184;DHT22;42086;53.170;6.980;2022-11-20T12:43:26;4.20;99.90
56184;DHT22;42086;53.170;6.980;2022-11-20T12:46:37;4.10;99.90
56184;DHT22;42086;53.170;6.980;2022-11-20T12:49:27;4.00;99.90
56184;DHT22;42086;53.170;6.980;2022-11-20T12:54:58;4.10;99.90
56184;DHT22;42086;53.170;6.980;2022-11-20T13:00:08;4.20;99.90
56184;DHT22;42086;53.170;6.980;2022-11-20T13:05:21;4.20;99.90
56184;DHT22;42086;53.170;6.980;2022-11-20T13:07:52;4.30;99.90
56184;DHT22;42086;53.170;6.980;2022-11-20T13:13:14;4.30;99.90
56184;DHT22;42086;53.170;6.980;2022-11-20T13:16:25;4.30;99.90
56184;DHT22;42086;53.170;6.980;2022-11-20T13:18:37;4.20;99.90
56184;DHT22;42086;53.170;6.980;2022-11-20T13:21:20;4.30;99.90
56184;DHT22;42086;53.170;6.980;2022-11-20T13:23:46;4.10;99.90
56184;DHT22;42086;53.170;6.980;2022-11-20T13:26:20;4.00;99.90
56184;DHT22;42086;53.170;6.980;2022-11-20T13:28:59;4.10;99.90
56184;DHT22;42086;53.170;6.980;2022-11-20T13:31:32;4.10;99.90
56184;DHT22;42086;53.170;6.980;2022-11-20T13:34:01;4.10;99.90
56184;DHT22;42086;53.170;6.980;2022-11-20T13:36:29;4.20;99.90
56184;DHT22;42086;53.170;6.980;2022-11-20T13:38:56;4.20;99.90
56184;DHT22;42086;53.170;6.980;2022-11-20T13:43:58;4.30;99.90
56184;DHT22;42086;53.170;6.980;2022-11-20T13:46:41;4.30;99.90
56184;DHT22;42086;53.170;6.980;2022-11-20T13:49:17;4.40;99.90
56184;DHT22;42086;53.170;6.980;2022-11-20T13:51:46;4.30;99.90
56184;DHT22;42086;53.170;6.980;2022-11-20T13:54:26;4.30;99.90
56184;DHT22;42086;53.170;6.980;2022-11-20T14:02:20;4.10;99.90
56184;DHT22;42086;53.170;6.980;2022-11-20T14:04:49;4.10;99.90
56184;DHT22;42086;53.170;6.980;2022-11-20T14:07:18;4.30;99.90
56184;DHT22;42086;53.170;6.980;2022-11-20T14:09:54;3.90;99.90
56184;DHT22;42086;53.170;6.980;2022-11-20T14:12:23;3.90;99.90
56184;DHT22;42086;53.170;6.980;2022-11-20T14:14:53;3.90;99.90
56184;DHT22;42086;53.170;6.980;2022-11-20T14:17:23;3.90;99.90
56184;DHT22;42086;53.170;6.980;2022-11-20T14:19:51;3.80;99.90
56184;DHT22;42086;53.170;6.980;2022-11-20T14:22:23;3.80;99.90
56184;DHT22;42086;53.170;6.980;2022-11-20T14:27:41;3.60;99.90
56184;DHT22;42086;53.170;6.980;2022-11-20T14:30:18;3.60;99.90
56184;DHT22;42086;53.170;6.980;2022-11-20T14:32:46;3.60;99.90
56184;DHT22;42086;53.170;6.980;2022-11-20T14:35:35;3.50;99.90
56184;DHT22;42086;53.170;6.980;2022-11-20T14:38:03;3.40;99.90
56184;DHT22;42086;53.170;6.980;2022-11-20T14:40:31;3.70;99.90
56184;DHT22;42086;53.170;6.980;2022-11-20T14:42:58;3.60;99.90
56184;DHT22;42086;53.170;6.980;2022-11-20T14:45:25;3.40;99.90
56184;DHT22;42086;53.170;6.980;2022-11-20T14:47:55;3.50;99.90
56184;DHT22;42086;53.170;6.980;2022-11-20T14:50:29;3.30;99.90
56184;DHT22;42086;53.170;6.980;2022-11-20T14:52:57;3.20;99.90
56184;DHT22;42086;53.170;6.980;2022-11-20T14:55:33;3.50;99.90
56184;DHT22;42086;53.170;6.980;2022-11-20T14:58:02;3.10;99.90
56184;DHT22;42086;53.170;6.980;2022-11-20T15:00:31;3.10;99.90
56184;DHT22;42086;53.170;6.980;2022-11-20T15:02:58;3.10;99.90
56184;DHT22;42086;53.170;6.980;2022-11-20T15:05:26;3.30;99.90
56184;DHT22;42086;53.170;6.980;2022-11-20T15:08:11;3.20;99.90
56184;DHT22;42086;53.170;6.980;2022-11-20T15:10:37;2.90;99.90
56184;DHT22;42086;53.170;6.980;2022-11-20T15:13:12;2.90;99.90
56184;DHT22;42086;53.170;6.980;2022-11-20T15:15:55;2.80;99.90
56184;DHT22;42086;53.170;6.980;2022-11-20T15:18:36;2.70;99.90
56184;DHT22;42086;53.170;6.980;2022-11-20T15:21:06;3.10;99.90
56184;DHT22;42086;53.170;6.980;2022-11-20T15:23:35;2.60;99.90
56184;DHT22;42086;53.170;6.980;2022-11-20T15:26:01;2.60;99.90
56184;DHT22;42086;53.170;6.980;2022-11-20T15:28:39;2.90;99.90
56184;DHT22;42086;53.170;6.980;2022-11-20T15:31:05;2.50;99.90
56184;DHT22;42086;53.170;6.980;2022-11-20T15:33:32;2.70;99.90
56184;DHT22;42086;53.170;6.980;2022-11-20T15:35:58;2.80;99.90
56184;DHT22;42086;53.170;6.980;2022-11-20T15:38:24;2.40;99.90
56184;DHT22;42086;53.170;6.980;2022-11-20T15:40:50;2.40;99.90
56184;DHT22;42086;53.170;6.980;2022-11-20T15:43:16;2.30;99.90
56184;DHT22;42086;53.170;6.980;2022-11-20T15:45:56;2.30;99.90
56184;DHT22;42086;53.170;6.980;2022-11-20T15:48:27;2.30;99.90
56184;DHT22;42086;53.170;6.980;2022-11-20T15:53:21;2.20;99.90
56184;DHT22;42086;53.170;6.980;2022-11-20T15:55:47;2.20;99.90
56184;DHT22;42086;53.170;6.980;2022-11-20T15:58:13;2.30;99.90
56184;DHT22;42086;53.170;6.980;2022-11-20T16:00:39;2.10;99.90
56184;DHT22;42086;53.170;6.980;2022-11-20T16:03:05;2.00;99.90
56184;DHT22;42086;53.170;6.980;2022-11-20T16:05:31;2.00;99.90
56184;DHT22;42086;53.170;6.980;2022-11-20T16:07:57;2.00;99.90
56184;DHT22;42086;53.170;6.980;2022-11-20T16:10:23;2.00;99.90
56184;DHT22;42086;53.170;6.980;2022-11-20T16:12:49;2.30;99.90
56184;DHT22;42086;53.170;6.980;2022-11-20T16:15:34;2.00;99.90
56184;DHT22;42086;53.170;6.980;2022-11-20T16:18:17;2.00;99.90
56184;DHT22;42086;53.170;6.980;2022-11-20T16:20:44;2.00;99.90
56184;DHT22;42086;53.170;6.980;2022-11-20T16:23:10;2.40;99.90
56184;DHT22;42086;53.170;6.980;2022-11-20T16:25:36;2.00;99.90
56184;DHT22;42086;53.170;6.980;2022-11-20T16:28:02;3.10;99.90
56184;DHT22;42086;53.170;6.980;2022-11-20T16:30:28;2.10;99.90
56184;DHT22;42086;53.170;6.980;2022-11-20T16:32:54;2.90;99.90
56184;DHT22;42086;53.170;6.980;2022-11-20T16:35:19;2.10;99.90
56184;DHT22;42086;53.170;6.980;2022-11-20T16:37:45;2.10;99.90
56184;DHT22;42086;53.170;6.980;2022-11-20T16:40:11;2.10;99.90
56184;DHT22;42086;53.170;6.980;2022-11-20T16:42:37;2.20;99.90
56184;DHT22;42086;53.170;6.980;2022-11-20T16:45:04;1.90;99.90
56184;DHT22;42086;53.170;6.980;2022-11-20T16:47:35;2.10;99.90
56184;DHT22;42086;53.170;6.980;2022-11-20T16:50:02;2.70;99.90
56184;DHT22;42086;53.170;6.980;2022-11-20T16:52:29;2.10;99.90
56184;DHT22;42086;53.170;6.980;2022-11-20T16:54:56;2.40;99.90
56184;DHT22;42086;53.170;6.980;2022-11-20T16:57:21;2.10;99.90
56184;DHT22;42086;53.170;6.980;2022-11-20T16:59:48;2.10;99.90
56184;DHT22;42086;53.170;6.980;2022-11-20T17:02:14;2.30;99.90
56184;DHT22;42086;53.170;6.980;2022-11-20T17:04:40;2.10;99.90
56184;DHT22;42086;53.170;6.980;2022-11-20T17:07:06;2.70;99.90
56184;DHT22;42086;53.170;6.980;2022-11-20T17:09:32;2.10;99.90
56184;DHT22;42086;53.170;6.980;2022-11-20T17:11:58;2.70;99.90
56184;DHT22;42086;53.170;6.980;2022-11-20T17:14:24;2.00;99.90
56184;DHT22;42086;53.170;6.980;2022-11-20T17:16:50;2.00;99.90
56184;DHT22;42086;53.170;6.980;2022-11-20T17:19:16;2.00;99.90
56184;DHT22;42086;53.170;6.980;2022-11-20T17:21:41;2.00;99.90
56184;DHT22;42086;53.170;6.980;2022-11-20T17:24:11;2.20;99.90
56184;DHT22;42086;53.170;6.980;2022-11-20T17:26:39;1.90;99.90